sensor_id;sensor_type;location;lat;lon;timestamp;P1;durP1;ratioP1;P2;durP2;ratioP2
17727;SDS011;8984;49.268;12.302;2023-07-29T00:01:01;2.40;;;2.03;;
17727;SDS011;8984;49.268;12.302;2023-07-29T00:03:28;1.88;;;1.73;;
17727;SDS011;8984;49.268;12.302;2023-07-29T00:05:57;3.72;;;2.10;;
17727;SDS011;8984;49.268;12.302;2023-07-29T00:08:24;2.10;;;1.87;;
17727;SDS011;8984;49.268;12.302;2023-07-29T00:10:52;1.70;;;1.60;;
17727;SDS011;8984;49.268;12.302;2023-07-29T00:13:19;2.17;;;1.70;;
17727;SDS011;8984;49.268;12.302;2023-07-29T00:15:46;2.00;;;1.80;;
17727;SDS011;8984;49.268;12.302;2023-07-29T00:18:13;2.15;;;1.83;;
17727;SDS011;8984;49.268;12.302;2023-07-29T00:20:40;1.95;;;1.80;;
17727;SDS011;8984;49.268;12.302;2023-07-29T00:23:07;1.98;;;1.70;;
17727;SDS011;8984;49.268;12.302;2023-07-29T00:25:34;4.35;;;2.13;;
17727;SDS011;8984;49.268;12.302;2023-07-29T00:28:02;3.03;;;2.00;;
17727;SDS011;8984;49.268;12.302;2023-07-29T00:30:29;2.95;;;1.85;;
17727;SDS011;8984;49.268;12.302;2023-07-29T00:32:56;2.30;;;1.90;;
17727;SDS011;8984;49.268;12.302;2023-07-29T00:35:22;2.33;;;1.75;;
17727;SDS011;8984;49.268;12.302;2023-07-29T00:37:49;2.92;;;1.85;;
17727;SDS011;8984;49.268;12.302;2023-07-29T00:40:19;2.28;;;2.08;;
17727;SDS011;8984;49.268;12.302;2023-07-29T00:42:46;3.67;;;1.70;;
17727;SDS011;8984;49.268;12.302;2023-07-29T00:45:14;2.85;;;2.03;;
17727;SDS011;8984;49.268;12.302;2023-07-29T00:47:41;2.33;;;1.92;;
17727;SDS011;8984;49.268;12.302;2023-07-29T00:50:09;2.10;;;1.90;;
17727;SDS011;8984;49.268;12.302;2023-07-29T00:52:36;2.13;;;1.92;;
17727;SDS011;8984;49.268;12.302;2023-07-29T00:55:03;3.03;;;2.10;;
17727;SDS011;8984;49.268;12.302;2023-07-29T00:57:31;3.63;;;2.35;;
17727;SDS011;8984;49.268;12.302;2023-07-29T00:59:59;2.08;;;1.80;;
17727;SDS011;8984;49.268;12.302;2023-07-29T01:02:27;2.53;;;2.05;;
17727;SDS011;8984;49.268;12.302;2023-07-29T01:04:57;2.10;;;1.88;;
17727;SDS011;8984;49.268;12.302;2023-07-29T01:07:27;2.00;;;1.83;;
17727;SDS011;8984;49.268;12.302;2023-07-29T01:10:00;2.30;;;1.90;;
17727;SDS011;8984;49.268;12.302;2023-07-29T01:12:32;2.70;;;2.10;;
17727;SDS011;8984;49.268;12.302;2023-07-29T01:15:09;3.20;;;2.25;;
17727;SDS011;8984;49.268;12.302;2023-07-29T01:17:42;1.80;;;1.70;;
17727;SDS011;8984;49.268;12.302;2023-07-29T01:20:10;4.68;;;2.45;;
17727;SDS011;8984;49.268;12.302;2023-07-29T01:22:40;2.60;;;2.40;;
17727;SDS011;8984;49.268;12.302;2023-07-29T01:25:09;3.60;;;2.83;;
17727;SDS011;8984;49.268;12.302;2023-07-29T01:27:36;3.78;;;3.25;;
17727;SDS011;8984;49.268;12.302;2023-07-29T01:30:03;3.43;;;3.07;;
17727;SDS011;8984;49.268;12.302;2023-07-29T01:32:35;3.50;;;2.90;;
17727;SDS011;8984;49.268;12.302;2023-07-29T01:35:10;3.88;;;3.05;;
17727;SDS011;8984;49.268;12.302;2023-07-29T01:37:42;3.10;;;2.80;;
17727;SDS011;8984;49.268;12.302;2023-07-29T01:40:15;4.45;;;2.80;;
17727;SDS011;8984;49.268;12.302;2023-07-29T01:42:42;3.13;;;2.80;;
17727;SDS011;8984;49.268;12.302;2023-07-29T01:45:10;4.47;;;3.10;;
17727;SDS011;8984;49.268;12.302;2023-07-29T01:47:37;4.88;;;2.55;;
17727;SDS011;8984;49.268;12.302;2023-07-29T01:50:06;3.20;;;2.90;;
17727;SDS011;8984;49.268;12.302;2023-07-29T01:52:33;3.58;;;3.10;;
17727;SDS011;8984;49.268;12.302;2023-07-29T01:55:00;4.57;;;2.83;;
17727;SDS011;8984;49.268;12.302;2023-07-29T01:57:28;4.03;;;2.80;;
17727;SDS011;8984;49.268;12.302;2023-07-29T01:59:55;4.03;;;2.85;;
17727;SDS011;8984;49.268;12.302;2023-07-29T02:02:22;4.13;;;2.85;;
17727;SDS011;8984;49.268;12.302;2023-07-29T02:04:49;3.47;;;2.45;;
17727;SDS011;8984;49.268;12.302;2023-07-29T02:07:17;3.25;;;2.50;;
17727;SDS011;8984;49.268;12.302;2023-07-29T02:09:44;3.45;;;2.50;;
17727;SDS011;8984;49.268;12.302;2023-07-29T02:12:11;2.67;;;2.30;;
17727;SDS011;8984;49.268;12.302;2023-07-29T02:14:39;3.43;;;2.33;;
17727;SDS011;8984;49.268;12.302;2023-07-29T02:17:06;2.60;;;2.10;;
17727;SDS011;8984;49.268;12.302;2023-07-29T02:19:33;3.28;;;2.40;;
17727;SDS011;8984;49.268;12.302;2023-07-29T02:22:00;2.58;;;2.20;;
17727;SDS011;8984;49.268;12.302;2023-07-29T02:24:27;3.85;;;2.20;;
17727;SDS011;8984;49.268;12.302;2023-07-29T02:26:54;4.55;;;2.45;;
17727;SDS011;8984;49.268;12.302;2023-07-29T02:29:21;2.30;;;2.00;;
17727;SDS011;8984;49.268;12.302;2023-07-29T02:31:49;2.40;;;2.20;;
17727;SDS011;8984;49.268;12.302;2023-07-29T02:34:16;4.00;;;2.50;;
17727;SDS011;8984;49.268;12.302;2023-07-29T02:36:43;2.55;;;2.10;;
17727;SDS011;8984;49.268;12.302;2023-07-29T02:39:10;4.22;;;2.15;;
17727;SDS011;8984;49.268;12.302;2023-07-29T02:41:37;2.25;;;2.00;;
17727;SDS011;8984;49.268;12.302;2023-07-29T02:44:04;4.13;;;2.25;;
17727;SDS011;8984;49.268;12.302;2023-07-29T02:46:31;3.60;;;2.40;;
17727;SDS011;8984;49.268;12.302;2023-07-29T02:49:01;4.97;;;2.58;;
17727;SDS011;8984;49.268;12.302;2023-07-29T02:51:28;2.80;;;2.37;;
17727;SDS011;8984;49.268;12.302;2023-07-29T02:53:55;2.83;;;2.37;;
17727;SDS011;8984;49.268;12.302;2023-07-29T02:56:22;3.93;;;2.30;;
17727;SDS011;8984;49.268;12.302;2023-07-29T02:58:49;2.60;;;2.40;;
17727;SDS011;8984;49.268;12.302;2023-07-29T03:01:17;3.27;;;2.50;;
17727;SDS011;8984;49.268;12.302;2023-07-29T03:03:44;3.73;;;2.30;;
17727;SDS011;8984;49.268;12.302;2023-07-29T03:06:13;5.97;;;2.23;;
17727;SDS011;8984;49.268;12.302;2023-07-29T03:08:40;2.90;;;2.10;;
17727;SDS011;8984;49.268;12.302;2023-07-29T03:11:08;3.60;;;2.60;;
17727;SDS011;8984;49.268;12.302;2023-07-29T03:13:36;4.10;;;2.00;;
17727;SDS011;8984;49.268;12.302;2023-07-29T03:16:06;3.23;;;2.50;;
17727;SDS011;8984;49.268;12.302;2023-07-29T03:18:33;2.93;;;2.63;;
17727;SDS011;8984;49.268;12.302;2023-07-29T03:21:00;2.97;;;2.50;;
17727;SDS011;8984;49.268;12.302;2023-07-29T03:23:29;2.20;;;2.00;;
17727;SDS011;8984;49.268;12.302;2023-07-29T03:25:57;2.53;;;2.00;;
17727;SDS011;8984;49.268;12.302;2023-07-29T03:28:24;3.97;;;2.30;;
17727;SDS011;8984;49.268;12.302;2023-07-29T03:30:52;3.10;;;2.77;;
17727;SDS011;8984;49.268;12.302;2023-07-29T03:33:19;3.90;;;2.53;;
17727;SDS011;8984;49.268;12.302;2023-07-29T03:35:46;4.17;;;2.27;;
17727;SDS011;8984;49.268;12.302;2023-07-29T03:38:14;3.70;;;2.77;;
17727;SDS011;8984;49.268;12.302;2023-07-29T03:40:42;3.03;;;2.67;;
17727;SDS011;8984;49.268;12.302;2023-07-29T03:43:09;2.50;;;2.30;;
17727;SDS011;8984;49.268;12.302;2023-07-29T03:45:37;2.73;;;2.53;;
17727;SDS011;8984;49.268;12.302;2023-07-29T03:48:04;6.87;;;3.40;;
17727;SDS011;8984;49.268;12.302;2023-07-29T03:50:32;2.70;;;2.40;;
17727;SDS011;8984;49.268;12.302;2023-07-29T03:53:00;6.00;;;3.70;;
17727;SDS011;8984;49.268;12.302;2023-07-29T03:55:27;4.03;;;3.13;;
17727;SDS011;8984;49.268;12.302;2023-07-29T03:57:56;3.63;;;3.00;;
17727;SDS011;8984;49.268;12.302;2023-07-29T04:00:23;3.87;;;2.77;;
17727;SDS011;8984;49.268;12.302;2023-07-29T04:02:50;3.53;;;2.83;;
17727;SDS011;8984;49.268;12.302;2023-07-29T04:05:16;3.30;;;3.00;;
17727;SDS011;8984;49.268;12.302;2023-07-29T04:07:44;4.20;;;2.40;;
17727;SDS011;8984;49.268;12.302;2023-07-29T04:10:11;4.30;;;3.20;;
17727;SDS011;8984;49.268;12.302;2023-07-29T04:12:38;4.50;;;2.97;;
17727;SDS011;8984;49.268;12.302;2023-07-29T04:15:07;4.47;;;3.00;;
17727;SDS011;8984;49.268;12.302;2023-07-29T04:17:34;3.77;;;3.37;;
17727;SDS011;8984;49.268;12.302;2023-07-29T04:20:01;4.47;;;2.97;;
17727;SDS011;8984;49.268;12.302;2023-07-29T04:22:28;4.30;;;3.22;;
17727;SDS011;8984;49.268;12.302;2023-07-29T04:24:55;3.17;;;2.88;;
17727;SDS011;8984;49.268;12.302;2023-07-29T04:27:22;4.57;;;3.42;;
17727;SDS011;8984;49.268;12.302;2023-07-29T04:29:49;3.38;;;3.08;;
17727;SDS011;8984;49.268;12.302;2023-07-29T04:32:17;5.85;;;3.25;;
17727;SDS011;8984;49.268;12.302;2023-07-29T04:34:44;4.28;;;3.20;;
17727;SDS011;8984;49.268;12.302;2023-07-29T04:37:11;3.35;;;2.50;;
17727;SDS011;8984;49.268;12.302;2023-07-29T04:39:38;5.05;;;2.97;;
17727;SDS011;8984;49.268;12.302;2023-07-29T04:42:05;2.65;;;2.45;;
17727;SDS011;8984;49.268;12.302;2023-07-29T04:44:32;2.70;;;2.50;;
17727;SDS011;8984;49.268;12.302;2023-07-29T04:46:58;5.07;;;3.35;;
17727;SDS011;8984;49.268;12.302;2023-07-29T04:49:27;2.97;;;2.42;;
17727;SDS011;8984;49.268;12.302;2023-07-29T04:51:54;3.47;;;2.63;;
17727;SDS011;8984;49.268;12.302;2023-07-29T04:54:21;3.75;;;3.25;;
17727;SDS011;8984;49.268;12.302;2023-07-29T04:56:47;3.58;;;2.83;;
17727;SDS011;8984;49.268;12.302;2023-07-29T04:59:14;4.68;;;3.60;;
17727;SDS011;8984;49.268;12.302;2023-07-29T05:01:42;4.97;;;2.80;;
17727;SDS011;8984;49.268;12.302;2023-07-29T05:04:08;9.23;;;2.78;;
17727;SDS011;8984;49.268;12.302;2023-07-29T05:06:37;3.25;;;2.88;;
17727;SDS011;8984;49.268;12.302;2023-07-29T05:09:13;3.65;;;2.50;;
17727;SDS011;8984;49.268;12.302;2023-07-29T05:11:40;3.22;;;2.63;;
17727;SDS011;8984;49.268;12.302;2023-07-29T05:14:08;2.50;;;2.25;;
17727;SDS011;8984;49.268;12.302;2023-07-29T05:16:35;2.53;;;2.13;;
17727;SDS011;8984;49.268;12.302;2023-07-29T05:19:02;4.70;;;2.35;;
17727;SDS011;8984;49.268;12.302;2023-07-29T05:21:29;6.05;;;2.88;;
17727;SDS011;8984;49.268;12.302;2023-07-29T05:23:57;3.20;;;2.08;;
17727;SDS011;8984;49.268;12.302;2023-07-29T05:26:24;3.00;;;2.40;;
17727;SDS011;8984;49.268;12.302;2023-07-29T05:28:51;3.63;;;2.50;;
17727;SDS011;8984;49.268;12.302;2023-07-29T05:31:18;3.53;;;2.75;;
17727;SDS011;8984;49.268;12.302;2023-07-29T05:33:45;3.55;;;2.70;;
17727;SDS011;8984;49.268;12.302;2023-07-29T05:36:11;5.13;;;3.00;;
17727;SDS011;8984;49.268;12.302;2023-07-29T05:38:38;4.40;;;2.58;;
17727;SDS011;8984;49.268;12.302;2023-07-29T05:41:06;3.55;;;2.85;;
17727;SDS011;8984;49.268;12.302;2023-07-29T05:43:33;4.20;;;2.63;;
17727;SDS011;8984;49.268;12.302;2023-07-29T05:46:00;4.57;;;3.55;;
17727;SDS011;8984;49.268;12.302;2023-07-29T05:48:27;4.40;;;3.85;;
17727;SDS011;8984;49.268;12.302;2023-07-29T05:50:54;4.97;;;3.92;;
17727;SDS011;8984;49.268;12.302;2023-07-29T05:53:20;9.88;;;3.55;;
17727;SDS011;8984;49.268;12.302;2023-07-29T05:55:47;5.18;;;4.15;;
17727;SDS011;8984;49.268;12.302;2023-07-29T05:58:16;5.47;;;4.55;;
17727;SDS011;8984;49.268;12.302;2023-07-29T06:00:42;4.53;;;4.13;;
17727;SDS011;8984;49.268;12.302;2023-07-29T06:03:09;3.63;;;3.33;;
17727;SDS011;8984;49.268;12.302;2023-07-29T06:05:36;3.83;;;3.50;;
17727;SDS011;8984;49.268;12.302;2023-07-29T06:08:03;4.22;;;3.65;;
17727;SDS011;8984;49.268;12.302;2023-07-29T06:10:30;4.38;;;3.97;;
17727;SDS011;8984;49.268;12.302;2023-07-29T06:12:57;4.28;;;3.75;;
17727;SDS011;8984;49.268;12.302;2023-07-29T06:15:25;4.57;;;3.67;;
17727;SDS011;8984;49.268;12.302;2023-07-29T06:17:52;3.53;;;3.22;;
17727;SDS011;8984;49.268;12.302;2023-07-29T06:20:19;3.20;;;2.90;;
17727;SDS011;8984;49.268;12.302;2023-07-29T06:22:46;6.22;;;3.53;;
17727;SDS011;8984;49.268;12.302;2023-07-29T06:25:13;4.10;;;3.70;;
17727;SDS011;8984;49.268;12.302;2023-07-29T06:27:39;3.78;;;3.08;;
17727;SDS011;8984;49.268;12.302;2023-07-29T06:30:07;4.80;;;3.28;;
17727;SDS011;8984;49.268;12.302;2023-07-29T06:32:35;3.78;;;3.22;;
17727;SDS011;8984;49.268;12.302;2023-07-29T06:35:02;4.72;;;3.33;;
17727;SDS011;8984;49.268;12.302;2023-07-29T06:37:29;4.07;;;3.00;;
17727;SDS011;8984;49.268;12.302;2023-07-29T06:39:58;4.85;;;3.10;;
17727;SDS011;8984;49.268;12.302;2023-07-29T06:42:25;5.68;;;3.50;;
17727;SDS011;8984;49.268;12.302;2023-07-29T06:44:51;4.00;;;3.60;;
17727;SDS011;8984;49.268;12.302;2023-07-29T06:47:18;4.25;;;3.10;;
17727;SDS011;8984;49.268;12.302;2023-07-29T06:49:46;3.40;;;3.10;;
17727;SDS011;8984;49.268;12.302;2023-07-29T06:52:13;4.22;;;3.22;;
17727;SDS011;8984;49.268;12.302;2023-07-29T06:54:40;4.63;;;3.13;;
17727;SDS011;8984;49.268;12.302;2023-07-29T06:57:07;5.85;;;3.58;;
17727;SDS011;8984;49.268;12.302;2023-07-29T06:59:34;3.63;;;3.33;;
17727;SDS011;8984;49.268;12.302;2023-07-29T07:02:01;4.32;;;3.60;;
17727;SDS011;8984;49.268;12.302;2023-07-29T07:04:27;5.80;;;3.65;;
17727;SDS011;8984;49.268;12.302;2023-07-29T07:06:56;4.97;;;3.53;;
17727;SDS011;8984;49.268;12.302;2023-07-29T07:09:22;5.00;;;4.05;;
17727;SDS011;8984;49.268;12.302;2023-07-29T07:11:49;5.60;;;4.07;;
17727;SDS011;8984;49.268;12.302;2023-07-29T07:14:16;5.55;;;3.78;;
17727;SDS011;8984;49.268;12.302;2023-07-29T07:16:43;5.63;;;4.03;;
17727;SDS011;8984;49.268;12.302;2023-07-29T07:19:10;3.50;;;3.20;;
17727;SDS011;8984;49.268;12.302;2023-07-29T07:21:37;3.95;;;3.53;;
17727;SDS011;8984;49.268;12.302;2023-07-29T07:24:05;7.95;;;4.43;;
17727;SDS011;8984;49.268;12.302;2023-07-29T07:26:33;4.07;;;3.67;;
17727;SDS011;8984;49.268;12.302;2023-07-29T07:28:59;4.78;;;4.10;;
17727;SDS011;8984;49.268;12.302;2023-07-29T07:31:26;4.65;;;3.92;;
17727;SDS011;8984;49.268;12.302;2023-07-29T07:33:53;4.43;;;3.88;;
17727;SDS011;8984;49.268;12.302;2023-07-29T07:36:20;5.80;;;4.45;;
17727;SDS011;8984;49.268;12.302;2023-07-29T07:38:46;6.20;;;4.43;;
17727;SDS011;8984;49.268;12.302;2023-07-29T07:41:15;5.20;;;4.50;;
17727;SDS011;8984;49.268;12.302;2023-07-29T07:43:41;4.18;;;3.78;;
17727;SDS011;8984;49.268;12.302;2023-07-29T07:46:08;6.97;;;3.90;;
17727;SDS011;8984;49.268;12.302;2023-07-29T07:48:35;4.82;;;4.07;;
17727;SDS011;8984;49.268;12.302;2023-07-29T07:51:09;4.40;;;3.60;;
17727;SDS011;8984;49.268;12.302;2023-07-29T07:53:37;5.25;;;3.55;;
17727;SDS011;8984;49.268;12.302;2023-07-29T07:56:03;4.18;;;3.42;;
17727;SDS011;8984;49.268;12.302;2023-07-29T07:58:32;4.03;;;2.92;;
17727;SDS011;8984;49.268;12.302;2023-07-29T08:01:00;4.07;;;2.95;;
17727;SDS011;8984;49.268;12.302;2023-07-29T08:03:28;5.28;;;3.00;;
17727;SDS011;8984;49.268;12.302;2023-07-29T08:05:54;3.45;;;2.60;;
17727;SDS011;8984;49.268;12.302;2023-07-29T08:08:21;4.03;;;3.08;;
17727;SDS011;8984;49.268;12.302;2023-07-29T08:10:48;2.97;;;2.70;;
17727;SDS011;8984;49.268;12.302;2023-07-29T08:13:15;3.30;;;3.00;;
17727;SDS011;8984;49.268;12.302;2023-07-29T08:15:46;4.45;;;2.83;;
17727;SDS011;8984;49.268;12.302;2023-07-29T08:18:13;3.38;;;2.70;;
17727;SDS011;8984;49.268;12.302;2023-07-29T08:20:40;4.18;;;3.00;;
17727;SDS011;8984;49.268;12.302;2023-07-29T08:23:07;6.93;;;2.92;;
17727;SDS011;8984;49.268;12.302;2023-07-29T08:25:34;3.20;;;2.90;;
17727;SDS011;8984;49.268;12.302;2023-07-29T08:28:01;3.33;;;2.13;;
17727;SDS011;8984;49.268;12.302;2023-07-29T08:30:27;4.13;;;3.10;;
17727;SDS011;8984;49.268;12.302;2023-07-29T08:32:56;3.10;;;2.80;;
17727;SDS011;8984;49.268;12.302;2023-07-29T08:35:22;6.63;;;2.70;;
17727;SDS011;8984;49.268;12.302;2023-07-29T08:37:49;4.28;;;2.72;;
17727;SDS011;8984;49.268;12.302;2023-07-29T08:40:16;5.18;;;2.88;;
17727;SDS011;8984;49.268;12.302;2023-07-29T08:42:43;5.93;;;3.45;;
17727;SDS011;8984;49.268;12.302;2023-07-29T08:45:14;5.88;;;3.08;;
17727;SDS011;8984;49.268;12.302;2023-07-29T08:47:43;6.15;;;3.15;;
17727;SDS011;8984;49.268;12.302;2023-07-29T08:50:11;5.68;;;3.28;;
17727;SDS011;8984;49.268;12.302;2023-07-29T08:52:39;4.07;;;2.70;;
17727;SDS011;8984;49.268;12.302;2023-07-29T08:55:07;7.78;;;2.63;;
17727;SDS011;8984;49.268;12.302;2023-07-29T08:57:35;4.15;;;2.42;;
17727;SDS011;8984;49.268;12.302;2023-07-29T09:00:03;3.05;;;2.00;;
17727;SDS011;8984;49.268;12.302;2023-07-29T09:02:31;2.50;;;2.00;;
17727;SDS011;8984;49.268;12.302;2023-07-29T09:04:58;7.00;;;2.03;;
17727;SDS011;8984;49.268;12.302;2023-07-29T09:07:26;3.28;;;2.00;;
17727;SDS011;8984;49.268;12.302;2023-07-29T09:09:55;6.28;;;1.98;;
17727;SDS011;8984;49.268;12.302;2023-07-29T09:12:21;4.10;;;2.10;;
17727;SDS011;8984;49.268;12.302;2023-07-29T09:14:51;2.50;;;1.92;;
17727;SDS011;8984;49.268;12.302;2023-07-29T09:17:21;3.58;;;1.77;;
17727;SDS011;8984;49.268;12.302;2023-07-29T09:19:50;4.05;;;1.80;;
17727;SDS011;8984;49.268;12.302;2023-07-29T09:22:17;2.25;;;1.75;;
17727;SDS011;8984;49.268;12.302;2023-07-29T09:24:47;3.92;;;1.83;;
17727;SDS011;8984;49.268;12.302;2023-07-29T09:27:23;3.17;;;2.05;;
17727;SDS011;8984;49.268;12.302;2023-07-29T09:29:50;3.17;;;2.10;;
17727;SDS011;8984;49.268;12.302;2023-07-29T09:32:18;3.13;;;1.88;;
17727;SDS011;8984;49.268;12.302;2023-07-29T09:34:46;4.85;;;2.15;;
17727;SDS011;8984;49.268;12.302;2023-07-29T09:37:16;3.80;;;1.77;;
17727;SDS011;8984;49.268;12.302;2023-07-29T09:39:54;2.90;;;1.52;;
17727;SDS011;8984;49.268;12.302;2023-07-29T09:42:24;3.05;;;1.75;;
17727;SDS011;8984;49.268;12.302;2023-07-29T09:44:55;1.80;;;1.50;;
17727;SDS011;8984;49.268;12.302;2023-07-29T09:47:37;2.83;;;1.90;;
17727;SDS011;8984;49.268;12.302;2023-07-29T09:50:16;3.70;;;1.77;;
17727;SDS011;8984;49.268;12.302;2023-07-29T09:53:09;2.65;;;2.05;;
17727;SDS011;8984;49.268;12.302;2023-07-29T09:59:10;3.08;;;1.92;;
17727;SDS011;8984;49.268;12.302;2023-07-29T10:01:46;1.70;;;1.33;;
17727;SDS011;8984;49.268;12.302;2023-07-29T10:04:33;2.25;;;1.40;;
17727;SDS011;8984;49.268;12.302;2023-07-29T10:07:34;2.95;;;1.40;;
17727;SDS011;8984;49.268;12.302;2023-07-29T10:10:22;2.17;;;1.55;;
17727;SDS011;8984;49.268;12.302;2023-07-29T10:13:09;3.20;;;1.60;;
17727;SDS011;8984;49.268;12.302;2023-07-29T10:15:52;2.33;;;1.58;;
17727;SDS011;8984;49.268;12.302;2023-07-29T10:18:45;4.93;;;2.20;;
17727;SDS011;8984;49.268;12.302;2023-07-29T10:21:27;3.55;;;2.15;;
17727;SDS011;8984;49.268;12.302;2023-07-29T10:24:14;3.00;;;2.30;;
17727;SDS011;8984;49.268;12.302;2023-07-29T10:27:13;2.53;;;2.17;;
17727;SDS011;8984;49.268;12.302;2023-07-29T10:39:54;10.10;;;6.32;;
17727;SDS011;8984;49.268;12.302;2023-07-29T10:42:34;10.30;;;7.07;;
17727;SDS011;8984;49.268;12.302;2023-07-29T10:45:39;4.95;;;2.10;;
17727;SDS011;8984;49.268;12.302;2023-07-29T10:48:40;13.05;;;8.45;;
17727;SDS011;8984;49.268;12.302;2023-07-29T10:51:25;4.18;;;2.08;;
17727;SDS011;8984;49.268;12.302;2023-07-29T10:57:33;4.60;;;3.30;;
17727;SDS011;8984;49.268;12.302;2023-07-29T11:00:15;3.92;;;2.20;;
17727;SDS011;8984;49.268;12.302;2023-07-29T11:03:17;9.40;;;4.78;;
17727;SDS011;8984;49.268;12.302;2023-07-29T11:06:16;3.72;;;2.92;;
17727;SDS011;8984;49.268;12.302;2023-07-29T12:02:08;2.33;;;1.92;;
17727;SDS011;8984;49.268;12.302;2023-07-29T12:05:08;5.85;;;1.85;;
17727;SDS011;8984;49.268;12.302;2023-07-29T12:07:52;4.55;;;2.00;;
17727;SDS011;8984;49.268;12.302;2023-07-29T12:10:35;2.38;;;1.92;;
17727;SDS011;8984;49.268;12.302;2023-07-29T12:13:14;7.03;;;1.60;;
17727;SDS011;8984;49.268;12.302;2023-07-29T12:16:16;2.17;;;1.58;;
17727;SDS011;8984;49.268;12.302;2023-07-29T12:22:06;2.45;;;1.50;;
17727;SDS011;8984;49.268;12.302;2023-07-29T12:24:52;2.30;;;1.60;;
17727;SDS011;8984;49.268;12.302;2023-07-29T12:27:24;1.50;;;1.40;;
17727;SDS011;8984;49.268;12.302;2023-07-29T12:30:08;2.47;;;1.40;;
17727;SDS011;8984;49.268;12.302;2023-07-29T12:32:43;1.50;;;1.30;;
17727;SDS011;8984;49.268;12.302;2023-07-29T12:35:34;3.03;;;1.50;;
17727;SDS011;8984;49.268;12.302;2023-07-29T12:38:20;3.45;;;1.30;;
17727;SDS011;8984;49.268;12.302;2023-07-29T12:41:01;1.27;;;1.17;;
17727;SDS011;8984;49.268;12.302;2023-07-29T12:46:28;2.88;;;1.30;;
17727;SDS011;8984;49.268;12.302;2023-07-29T12:48:58;2.15;;;1.20;;
17727;SDS011;8984;49.268;12.302;2023-07-29T12:51:34;2.15;;;1.20;;
17727;SDS011;8984;49.268;12.302;2023-07-29T12:54:11;1.52;;;1.23;;
17727;SDS011;8984;49.268;12.302;2023-07-29T12:57:13;2.08;;;1.20;;
17727;SDS011;8984;49.268;12.302;2023-07-29T12:59:51;1.48;;;1.38;;
17727;SDS011;8984;49.268;12.302;2023-07-29T13:02:39;2.15;;;1.48;;
17727;SDS011;8984;49.268;12.302;2023-07-29T13:05:38;1.73;;;1.42;;
17727;SDS011;8984;49.268;12.302;2023-07-29T13:08:22;1.38;;;1.20;;
17727;SDS011;8984;49.268;12.302;2023-07-29T13:11:03;3.20;;;1.40;;
17727;SDS011;8984;49.268;12.302;2023-07-29T13:13:57;1.88;;;1.35;;
17727;SDS011;8984;49.268;12.302;2023-07-29T13:16:39;1.40;;;1.30;;
17727;SDS011;8984;49.268;12.302;2023-07-29T13:19:10;2.78;;;1.30;;
17727;SDS011;8984;49.268;12.302;2023-07-29T13:21:45;2.15;;;1.50;;
17727;SDS011;8984;49.268;12.302;2023-07-29T13:24:21;2.22;;;1.30;;
17727;SDS011;8984;49.268;12.302;2023-07-29T13:26:52;3.25;;;1.60;;
17727;SDS011;8984;49.268;12.302;2023-07-29T13:29:30;2.60;;;1.27;;
17727;SDS011;8984;49.268;12.302;2023-07-29T13:32:08;1.85;;;1.50;;
17727;SDS011;8984;49.268;12.302;2023-07-29T13:34:37;2.05;;;1.65;;
17727;SDS011;8984;49.268;12.302;2023-07-29T13:37:06;3.20;;;1.30;;
17727;SDS011;8984;49.268;12.302;2023-07-29T13:39:54;2.22;;;1.27;;
17727;SDS011;8984;49.268;12.302;2023-07-29T13:42:24;1.70;;;1.42;;
17727;SDS011;8984;49.268;12.302;2023-07-29T13:45:03;3.65;;;1.55;;
17727;SDS011;8984;49.268;12.302;2023-07-29T13:47:47;1.92;;;1.35;;
17727;SDS011;8984;49.268;12.302;2023-07-29T13:50:30;3.60;;;1.30;;
17727;SDS011;8984;49.268;12.302;2023-07-29T13:53:04;1.67;;;1.30;;
17727;SDS011;8984;49.268;12.302;2023-07-29T13:55:43;2.85;;;1.23;;
17727;SDS011;8984;49.268;12.302;2023-07-29T13:58:26;1.77;;;1.23;;
17727;SDS011;8984;49.268;12.302;2023-07-29T14:01:07;2.00;;;1.10;;
17727;SDS011;8984;49.268;12.302;2023-07-29T14:03:50;2.13;;;1.10;;
17727;SDS011;8984;49.268;12.302;2023-07-29T14:06:20;1.83;;;1.52;;
17727;SDS011;8984;49.268;12.302;2023-07-29T14:08:51;3.22;;;1.40;;
17727;SDS011;8984;49.268;12.302;2023-07-29T14:11:21;1.92;;;1.30;;
17727;SDS011;8984;49.268;12.302;2023-07-29T14:13:53;2.70;;;1.30;;
17727;SDS011;8984;49.268;12.302;2023-07-29T14:16:38;2.00;;;1.25;;
17727;SDS011;8984;49.268;12.302;2023-07-29T14:19:07;2.58;;;1.33;;
17727;SDS011;8984;49.268;12.302;2023-07-29T14:21:44;2.10;;;1.10;;
17727;SDS011;8984;49.268;12.302;2023-07-29T14:24:25;2.10;;;1.23;;
17727;SDS011;8984;49.268;12.302;2023-07-29T14:27:16;2.03;;;1.20;;
17727;SDS011;8984;49.268;12.302;2023-07-29T14:29:52;2.17;;;1.40;;
17727;SDS011;8984;49.268;12.302;2023-07-29T14:32:25;2.25;;;1.30;;
17727;SDS011;8984;49.268;12.302;2023-07-29T14:34:59;2.50;;;1.20;;
17727;SDS011;8984;49.268;12.302;2023-07-29T14:37:32;1.60;;;1.38;;
17727;SDS011;8984;49.268;12.302;2023-07-29T14:40:19;1.60;;;1.25;;
17727;SDS011;8984;49.268;12.302;2023-07-29T14:43:14;1.67;;;1.40;;
17727;SDS011;8984;49.268;12.302;2023-07-29T14:45:41;1.15;;;1.05;;
17727;SDS011;8984;49.268;12.302;2023-07-29T14:48:08;2.63;;;1.08;;
17727;SDS011;8984;49.268;12.302;2023-07-29T14:50:35;1.70;;;1.13;;
17727;SDS011;8984;49.268;12.302;2023-07-29T14:53:02;1.73;;;1.20;;
17727;SDS011;8984;49.268;12.302;2023-07-29T14:55:28;1.17;;;0.98;;
17727;SDS011;8984;49.268;12.302;2023-07-29T14:57:55;2.25;;;1.02;;
17727;SDS011;8984;49.268;12.302;2023-07-29T15:00:23;1.77;;;1.15;;
17727;SDS011;8984;49.268;12.302;2023-07-29T15:02:50;1.67;;;1.13;;
17727;SDS011;8984;49.268;12.302;2023-07-29T15:05:17;1.33;;;0.90;;
17727;SDS011;8984;49.268;12.302;2023-07-29T15:07:44;2.45;;;1.10;;
17727;SDS011;8984;49.268;12.302;2023-07-29T15:10:14;1.15;;;0.90;;
17727;SDS011;8984;49.268;12.302;2023-07-29T15:12:41;1.20;;;1.10;;
17727;SDS011;8984;49.268;12.302;2023-07-29T15:15:08;1.45;;;0.90;;
17727;SDS011;8984;49.268;12.302;2023-07-29T15:17:37;3.83;;;1.15;;
17727;SDS011;8984;49.268;12.302;2023-07-29T15:20:04;1.92;;;1.10;;
17727;SDS011;8984;49.268;12.302;2023-07-29T15:22:32;1.40;;;1.08;;
17727;SDS011;8984;49.268;12.302;2023-07-29T15:24:59;1.13;;;1.00;;
17727;SDS011;8984;49.268;12.302;2023-07-29T15:27:26;1.55;;;1.05;;
17727;SDS011;8984;49.268;12.302;2023-07-29T15:29:53;1.50;;;1.10;;
17727;SDS011;8984;49.268;12.302;2023-07-29T15:32:20;1.10;;;0.95;;
17727;SDS011;8984;49.268;12.302;2023-07-29T15:34:48;1.73;;;1.30;;
17727;SDS011;8984;49.268;12.302;2023-07-29T15:37:15;1.40;;;1.20;;
17727;SDS011;8984;49.268;12.302;2023-07-29T15:39:42;2.72;;;1.10;;
17727;SDS011;8984;49.268;12.302;2023-07-29T15:42:09;1.15;;;1.05;;
17727;SDS011;8984;49.268;12.302;2023-07-29T15:44:36;1.92;;;1.05;;
17727;SDS011;8984;49.268;12.302;2023-07-29T15:47:03;1.25;;;1.00;;
17727;SDS011;8984;49.268;12.302;2023-07-29T15:49:30;1.60;;;1.00;;
17727;SDS011;8984;49.268;12.302;2023-07-29T15:51:58;2.08;;;1.08;;
17727;SDS011;8984;49.268;12.302;2023-07-29T15:54:24;1.13;;;1.02;;
17727;SDS011;8984;49.268;12.302;2023-07-29T15:56:51;2.00;;;0.98;;
17727;SDS011;8984;49.268;12.302;2023-07-29T15:59:18;4.00;;;1.00;;
17727;SDS011;8984;49.268;12.302;2023-07-29T16:01:45;1.38;;;1.10;;
17727;SDS011;8984;49.268;12.302;2023-07-29T16:04:12;4.45;;;1.20;;
17727;SDS011;8984;49.268;12.302;2023-07-29T16:06:40;1.25;;;1.00;;
17727;SDS011;8984;49.268;12.302;2023-07-29T16:09:08;3.90;;;0.98;;
17727;SDS011;8984;49.268;12.302;2023-07-29T16:11:35;1.50;;;0.93;;
17727;SDS011;8984;49.268;12.302;2023-07-29T16:14:03;1.50;;;1.20;;
17727;SDS011;8984;49.268;12.302;2023-07-29T16:16:30;1.67;;;1.10;;
17727;SDS011;8984;49.268;12.302;2023-07-29T16:18:57;2.40;;;1.25;;
17727;SDS011;8984;49.268;12.302;2023-07-29T16:21:24;1.10;;;1.00;;
17727;SDS011;8984;49.268;12.302;2023-07-29T16:23:50;1.23;;;0.90;;
17727;SDS011;8984;49.268;12.302;2023-07-29T16:26:19;1.02;;;0.90;;